createdAt,value
2017-07-10T00:02:12.087Z,91.20
2017-07-10T00:04:39.671Z,92.50
2017-07-10T00:07:07.251Z,93.50
2017-07-10T00:09:34.810Z,93.80
2017-07-10T00:12:02.444Z,94.30
2017-07-10T00:14:30.037Z,96.00
2017-07-10T00:16:57.681Z,97.30
2017-07-10T00:19:25.394Z,97.00
2017-07-10T00:21:52.945Z,97.40
2017-07-10T00:24:20.652Z,99.10
2017-07-10T00:26:48.287Z,98.80
2017-07-10T00:32:01.127Z,99.40
2017-07-10T00:34:28.701Z,99.90
2017-07-10T00:36:57.262Z,99.90
2017-07-10T00:39:24.847Z,99.90
2017-07-10T00:41:53.199Z,99.90
2017-07-10T00:44:20.763Z,99.90
2017-07-10T00:46:48.506Z,99.90
2017-07-10T00:49:16.111Z,99.90
2017-07-10T00:51:43.689Z,99.90
2017-07-10T00:54:12.070Z,99.90
2017-07-10T00:56:40.411Z,99.90
2017-07-10T00:59:07.994Z,99.90
2017-07-10T01:01:35.558Z,99.90
2017-07-10T01:04:03.202Z,99.90
2017-07-10T01:06:30.777Z,99.90
2017-07-10T01:08:58.322Z,99.90
2017-07-10T01:11:25.913Z,99.90
2017-07-10T01:13:53.470Z,99.90
2017-07-10T01:16:21.023Z,99.90
2017-07-10T01:18:48.612Z,99.90
2017-07-10T01:21:16.931Z,99.90
2017-07-10T01:23:45.530Z,99.90
2017-07-10T01:26:13.116Z,99.90
2017-07-10T01:28:40.679Z,99.90
2017-07-10T01:31:08.254Z,99.90
2017-07-10T01:33:36.601Z,99.90
2017-07-10T01:36:04.335Z,99.90
2017-07-10T01:38:34.460Z,99.90
2017-07-10T01:41:02.050Z,99.90
2017-07-10T01:43:29.628Z,99.90
2017-07-10T01:45:57.189Z,99.90
2017-07-10T01:48:24.758Z,99.90
2017-07-10T01:50:52.311Z,99.90
2017-07-10T01:53:19.879Z,99.90
2017-07-10T01:55:47.523Z,99.90
2017-07-10T01:58:15.096Z,99.90
2017-07-10T02:00:42.659Z,99.90
2017-07-10T02:03:10.241Z,99.90
2017-07-10T02:05:37.826Z,99.90
2017-07-10T02:08:05.412Z,99.90
2017-07-10T02:10:33.074Z,99.90
2017-07-10T02:13:00.635Z,99.90
2017-07-10T02:15:28.209Z,99.90
2017-07-10T02:17:55.769Z,99.90
2017-07-10T02:20:23.331Z,99.90
2017-07-10T02:22:50.918Z,99.90
2017-07-10T02:25:18.658Z,99.90
2017-07-10T02:27:46.226Z,99.90
2017-07-10T02:30:13.818Z,99.90
2017-07-10T02:32:41.439Z,99.90
2017-07-10T02:35:09.021Z,99.90
2017-07-10T02:37:36.607Z,99.90
2017-07-10T02:40:04.193Z,99.90
2017-07-10T02:42:33.065Z,99.90
2017-07-10T02:45:00.642Z,99.90
2017-07-10T02:47:28.992Z,99.90
2017-07-10T02:49:56.546Z,99.90
2017-07-10T02:52:24.128Z,99.90
2017-07-10T02:54:51.695Z,99.90
2017-07-10T02:57:19.263Z,99.90
2017-07-10T02:59:46.838Z,99.90
2017-07-10T03:02:14.476Z,99.90
2017-07-10T03:04:42.041Z,99.90
2017-07-10T03:07:09.810Z,99.90
2017-07-10T03:09:37.542Z,99.90
2017-07-10T03:12:05.339Z,99.90
2017-07-10T03:14:32.930Z,99.90
2017-07-10T03:17:00.499Z,99.90
2017-07-10T03:19:28.114Z,99.90
2017-07-10T03:21:55.851Z,99.90
2017-07-10T03:24:23.412Z,99.90
2017-07-10T03:26:50.999Z,99.90
2017-07-10T03:29:18.555Z,99.90
2017-07-10T03:31:46.123Z,99.90
2017-07-10T03:34:13.698Z,99.90
2017-07-10T03:36:41.271Z,99.90
2017-07-10T03:39:08.847Z,99.90
2017-07-10T03:41:37.175Z,99.90
2017-07-10T03:44:04.747Z,99.90
2017-07-10T03:46:32.387Z,99.90
2017-07-10T03:48:59.959Z,99.90
2017-07-10T03:51:27.551Z,99.90
2017-07-10T03:53:55.111Z,99.90
2017-07-10T03:56:22.684Z,99.90
2017-07-10T03:58:50.263Z,99.90
2017-07-10T04:01:18.586Z,99.90
2017-07-10T04:03:46.162Z,99.90
2017-07-10T04:06:13.738Z,99.90
2017-07-10T04:08:41.318Z,99.90
2017-07-10T04:11:08.867Z,99.90
2017-07-10T04:13:36.422Z,99.90
2017-07-10T04:16:13.951Z,99.90
2017-07-10T04:18:42.270Z,99.90
2017-07-10T04:21:09.851Z,99.90
2017-07-10T04:23:37.535Z,99.90
2017-07-10T04:26:05.101Z,99.90
2017-07-10T04:28:32.671Z,99.90
2017-07-10T04:31:01.009Z,99.90
2017-07-10T04:33:28.575Z,99.90
2017-07-10T04:35:56.148Z,99.90
2017-07-10T04:38:23.725Z,99.90
2017-07-10T04:40:51.311Z,99.90
2017-07-10T04:43:18.892Z,99.90
2017-07-10T04:45:46.475Z,99.90
2017-07-10T04:48:14.034Z,99.90
2017-07-10T04:50:41.638Z,99.90
2017-07-10T04:53:09.190Z,99.90
2017-07-10T04:55:36.743Z,99.90
2017-07-10T04:58:04.315Z,99.90
2017-07-10T05:00:31.916Z,99.90
2017-07-10T05:03:00.265Z,99.90
2017-07-10T05:05:27.836Z,99.90
2017-07-10T05:07:55.754Z,99.90
2017-07-10T05:10:23.571Z,99.90
2017-07-10T05:12:51.264Z,99.90
2017-07-10T05:15:18.837Z,99.90
2017-07-10T05:17:46.379Z,99.90
2017-07-10T05:20:13.962Z,99.90
2017-07-10T05:22:41.526Z,99.90
2017-07-10T05:25:09.111Z,99.90
2017-07-10T05:27:36.697Z,99.90
2017-07-10T05:30:04.263Z,99.90
2017-07-10T05:32:31.834Z,99.90
2017-07-10T05:34:59.498Z,99.90
2017-07-10T05:37:27.078Z,99.90
2017-07-10T05:39:55.415Z,99.90
2017-07-10T05:42:22.992Z,99.90
2017-07-10T05:44:51.003Z,99.90
2017-07-10T05:47:18.594Z,99.90
2017-07-10T05:49:46.162Z,99.90
2017-07-10T05:52:13.743Z,99.90
2017-07-10T05:54:41.381Z,99.90
2017-07-10T05:57:08.966Z,99.90
2017-07-10T05:59:36.556Z,99.90
2017-07-10T06:02:04.103Z,99.90
2017-07-10T06:04:31.677Z,99.90
2017-07-10T06:06:59.249Z,99.90
2017-07-10T06:09:27.574Z,99.90
2017-07-10T06:11:55.135Z,99.90
2017-07-10T06:14:22.728Z,99.90
2017-07-10T06:16:50.306Z,99.90
2017-07-10T06:19:17.908Z,99.90
2017-07-10T06:21:45.479Z,99.90
2017-07-10T06:24:13.050Z,99.90
2017-07-10T06:26:40.609Z,99.90
2017-07-10T06:29:08.190Z,99.90
2017-07-10T06:31:35.792Z,99.90
2017-07-10T06:34:04.138Z,99.90
2017-07-10T06:36:31.739Z,99.90
2017-07-10T06:39:00.255Z,99.90
2017-07-10T06:41:27.822Z,99.90
2017-07-10T06:43:55.402Z,99.90
2017-07-10T06:46:22.996Z,99.90
2017-07-10T06:48:50.616Z,99.90
2017-07-10T06:51:18.185Z,99.90
2017-07-10T06:53:45.883Z,99.90
2017-07-10T06:56:13.450Z,99.90
2017-07-10T06:58:41.059Z,99.90
2017-07-10T07:01:08.663Z,99.90
2017-07-10T07:03:36.234Z,99.90
2017-07-10T07:06:03.823Z,99.90
2017-07-10T07:08:31.389Z,99.90
2017-07-10T07:10:58.974Z,99.90
2017-07-10T07:13:26.551Z,99.90
2017-07-10T07:15:54.145Z,99.90
2017-07-10T07:18:21.894Z,99.90
2017-07-10T07:20:49.693Z,99.90
2017-07-10T07:23:18.042Z,98.80
2017-07-10T07:25:45.689Z,98.80
2017-07-10T07:28:14.338Z,98.90
2017-07-10T07:30:41.935Z,98.10
2017-07-10T07:33:09.561Z,98.40
2017-07-10T07:35:37.159Z,98.60
2017-07-10T07:38:04.762Z,99.10
2017-07-10T07:40:32.472Z,99.00
2017-07-10T07:43:00.149Z,98.70
2017-07-10T07:45:27.742Z,98.00
2017-07-10T07:47:55.471Z,99.10
2017-07-10T07:50:23.062Z,98.30
2017-07-10T07:52:50.701Z,97.30
2017-07-10T07:55:19.008Z,95.00
2017-07-10T07:57:46.599Z,94.80
2017-07-10T08:00:14.951Z,92.30
2017-07-10T08:02:42.548Z,92.30
2017-07-10T08:05:10.909Z,89.70
2017-07-10T08:07:38.519Z,89.60
2017-07-10T08:10:06.097Z,88.90
2017-07-10T08:12:33.673Z,87.70
2017-07-10T08:15:01.271Z,89.00
2017-07-10T08:17:28.897Z,88.10
2017-07-10T08:19:56.566Z,88.00
2017-07-10T08:22:24.163Z,87.00
2017-07-10T08:24:52.524Z,88.00
2017-07-10T08:27:20.131Z,87.90
2017-07-10T08:29:47.725Z,87.20
2017-07-10T08:32:15.324Z,85.20
2017-07-10T08:34:42.983Z,84.00
2017-07-10T08:37:10.625Z,80.50
2017-07-10T08:39:38.196Z,81.00
2017-07-10T08:42:05.860Z,77.70
2017-07-10T08:44:33.434Z,76.30
2017-07-10T08:47:01.016Z,73.50
2017-07-10T08:49:29.381Z,70.80
2017-07-10T08:51:56.937Z,70.70
2017-07-10T08:54:24.501Z,71.70
2017-07-10T08:56:52.863Z,66.60
2017-07-10T08:59:20.482Z,66.50
2017-07-10T09:01:48.064Z,64.40
2017-07-10T09:04:15.623Z,69.00
2017-07-10T09:06:43.181Z,62.30
2017-07-10T09:09:10.754Z,61.30
2017-07-10T09:11:38.360Z,63.60
2017-07-10T09:14:05.944Z,68.20
2017-07-10T09:16:34.284Z,59.60
2017-07-10T09:19:01.988Z,59.30
2017-07-10T09:21:30.339Z,63.00
2017-07-10T09:23:57.895Z,63.20
2017-07-10T09:26:25.485Z,64.00
2017-07-10T09:28:53.051Z,67.40
2017-07-10T09:31:21.482Z,66.80
2017-07-10T09:33:49.194Z,66.70
2017-07-10T09:36:16.744Z,66.40
2017-07-10T09:38:44.327Z,64.30
2017-07-10T09:41:12.671Z,63.00
2017-07-10T09:43:40.222Z,63.20
2017-07-10T09:46:07.817Z,61.70
2017-07-10T09:48:35.393Z,60.20
2017-07-10T09:51:03.010Z,59.50
2017-07-10T09:53:30.579Z,57.80
2017-07-10T09:55:58.158Z,59.90
2017-07-10T09:58:25.745Z,57.90
2017-07-10T10:00:53.311Z,58.70
2017-07-10T10:03:20.879Z,58.30
2017-07-10T10:05:49.223Z,56.30
2017-07-10T10:08:17.065Z,56.20
2017-07-10T10:10:44.636Z,57.80
2017-07-10T10:13:12.203Z,61.80
2017-07-10T10:15:39.810Z,60.60
2017-07-10T10:18:07.408Z,61.90
2017-07-10T10:20:34.962Z,62.60
2017-07-10T10:23:02.546Z,63.70
2017-07-10T10:25:30.123Z,62.50
2017-07-10T10:27:57.708Z,62.10
2017-07-10T10:30:25.297Z,62.90
2017-07-10T10:32:53.686Z,60.60
2017-07-10T10:35:22.063Z,60.30
2017-07-10T10:37:50.409Z,59.20
2017-07-10T10:40:17.991Z,59.00
2017-07-10T10:42:45.555Z,58.70
2017-07-10T10:45:14.077Z,55.60
2017-07-10T10:47:41.654Z,55.90
2017-07-10T10:50:09.234Z,54.80
2017-07-10T10:52:36.947Z,53.40
2017-07-10T10:55:04.528Z,49.10
2017-07-10T10:57:32.123Z,49.00
2017-07-10T10:59:59.684Z,47.80
2017-07-10T11:02:27.276Z,49.60
2017-07-10T11:04:54.853Z,50.30
2017-07-10T11:07:22.493Z,52.10
2017-07-10T11:09:50.113Z,54.60
2017-07-10T11:12:17.676Z,51.30
2017-07-10T11:14:45.260Z,49.10
2017-07-10T11:17:12.831Z,50.40
2017-07-10T11:19:40.387Z,49.50
2017-07-10T11:22:07.970Z,52.40
2017-07-10T11:24:35.573Z,49.50
2017-07-10T11:27:03.259Z,48.80
2017-07-10T11:29:30.848Z,47.40
2017-07-10T11:31:58.427Z,48.10
2017-07-10T11:34:26.025Z,47.50
2017-07-10T11:36:53.597Z,46.40
2017-07-10T11:39:21.193Z,47.50
2017-07-10T11:41:48.798Z,47.20
2017-07-10T11:44:17.160Z,48.40
2017-07-10T11:46:44.776Z,48.40
2017-07-10T11:49:12.348Z,48.40
2017-07-10T11:51:39.917Z,46.80
2017-07-10T11:54:07.486Z,46.00
2017-07-10T11:56:35.066Z,45.40
2017-07-10T11:59:02.645Z,45.80
2017-07-10T12:01:30.252Z,45.00
2017-07-10T12:03:57.806Z,44.60
2017-07-10T12:06:25.371Z,42.80
2017-07-10T12:08:52.963Z,41.90
2017-07-10T12:11:21.472Z,42.10
2017-07-10T12:13:49.071Z,42.20
2017-07-10T12:16:17.413Z,46.80
2017-07-10T12:18:45.008Z,47.30
2017-07-10T12:21:12.666Z,47.40
2017-07-10T12:23:41.004Z,43.50
2017-07-10T12:26:08.689Z,43.40
2017-07-10T12:28:36.228Z,41.30
2017-07-10T12:31:03.822Z,43.80
2017-07-10T12:33:31.428Z,45.70
2017-07-10T12:35:59.288Z,46.90
2017-07-10T12:38:26.864Z,48.60
2017-07-10T12:40:54.413Z,48.40
2017-07-10T12:43:22.099Z,47.80
2017-07-10T12:45:49.659Z,46.60
2017-07-10T12:48:17.230Z,46.70
2017-07-10T12:50:44.788Z,48.40
2017-07-10T12:53:12.450Z,50.20
2017-07-10T12:55:40.062Z,50.70
2017-07-10T12:58:07.625Z,49.90
2017-07-10T13:00:35.203Z,50.70
2017-07-10T13:03:03.613Z,47.40
2017-07-10T13:05:31.187Z,47.30
2017-07-10T13:07:58.783Z,46.30
2017-07-10T13:10:26.406Z,47.60
2017-07-10T13:12:53.968Z,46.60
2017-07-10T13:15:21.550Z,47.80
2017-07-10T13:17:49.137Z,48.10
2017-07-10T13:20:16.781Z,49.90
2017-07-10T13:22:44.358Z,49.50
2017-07-10T13:25:11.918Z,50.80
2017-07-10T13:27:39.505Z,47.70
2017-07-10T13:30:07.075Z,49.70
2017-07-10T13:32:35.432Z,47.50
2017-07-10T13:35:03.150Z,47.40
2017-07-10T13:37:30.817Z,48.70
2017-07-10T13:39:58.409Z,49.30
2017-07-10T13:42:25.971Z,47.70
2017-07-10T13:44:53.698Z,46.70
2017-07-10T13:47:22.570Z,48.40
2017-07-10T13:49:50.138Z,48.40
2017-07-10T13:52:17.748Z,48.30
2017-07-10T13:54:45.328Z,47.60
2017-07-10T13:57:12.912Z,46.80
2017-07-10T13:59:40.490Z,46.50
2017-07-10T14:02:08.812Z,45.70
2017-07-10T14:04:36.398Z,45.90
2017-07-10T14:07:03.962Z,44.30
2017-07-10T14:09:31.556Z,42.00
2017-07-10T14:11:59.120Z,41.00
2017-07-10T14:14:27.460Z,37.50
2017-07-10T14:16:55.063Z,37.50
2017-07-10T14:19:22.754Z,37.90
2017-07-10T14:21:50.350Z,38.30
2017-07-10T14:24:17.910Z,37.80
2017-07-10T14:26:45.471Z,37.50
2017-07-10T14:29:13.094Z,39.70
2017-07-10T14:31:41.458Z,40.80
2017-07-10T14:34:09.799Z,41.80
2017-07-10T14:36:37.358Z,41.60
2017-07-10T14:39:04.953Z,41.50
2017-07-10T14:41:32.587Z,42.10
2017-07-10T14:44:00.171Z,44.20
2017-07-10T14:46:27.746Z,44.30
2017-07-10T14:48:55.296Z,44.10
2017-07-10T14:51:22.879Z,45.10
2017-07-10T14:53:51.274Z,45.30
2017-07-10T14:56:19.655Z,50.00
2017-07-10T14:58:47.235Z,49.90
2017-07-10T15:01:14.786Z,55.80
2017-07-10T15:03:42.498Z,58.60
2017-07-10T15:06:10.253Z,61.00
2017-07-10T15:08:37.900Z,62.10
2017-07-10T15:11:05.489Z,64.60
2017-07-10T15:13:33.053Z,64.30
2017-07-10T15:16:00.640Z,63.30
2017-07-10T15:18:28.263Z,63.80
2017-07-10T15:20:55.884Z,63.80
2017-07-10T15:23:24.359Z,63.10
2017-07-10T15:25:52.836Z,63.60
2017-07-10T15:28:20.560Z,63.50
2017-07-10T15:30:48.275Z,63.20
2017-07-10T15:33:15.855Z,62.30
2017-07-10T15:35:43.594Z,61.90
2017-07-10T15:38:11.298Z,60.40
2017-07-10T15:40:39.037Z,61.00
2017-07-10T15:43:06.729Z,62.20
2017-07-10T15:45:34.907Z,60.60
2017-07-10T15:48:03.222Z,60.70
2017-07-10T15:50:30.943Z,59.70
2017-07-10T15:52:59.307Z,60.90
2017-07-10T15:55:27.837Z,61.60
2017-07-10T15:57:55.534Z,61.50
2017-07-10T16:00:23.310Z,61.80
2017-07-10T16:02:50.976Z,61.50
2017-07-10T16:05:18.723Z,62.40
2017-07-10T16:07:47.524Z,64.10
2017-07-10T16:10:15.189Z,64.00
2017-07-10T16:12:42.959Z,63.90
2017-07-10T16:15:10.749Z,63.80
2017-07-10T16:17:38.401Z,63.80
2017-07-10T16:20:06.022Z,64.10
2017-07-10T16:22:33.681Z,64.60
2017-07-10T16:25:02.211Z,64.90
2017-07-10T16:27:29.861Z,64.50
2017-07-10T16:29:58.314Z,64.20
2017-07-10T16:32:25.939Z,64.20
2017-07-10T16:34:53.722Z,65.40
2017-07-10T16:37:21.423Z,64.90
2017-07-10T16:39:49.857Z,65.10
2017-07-10T16:42:17.504Z,65.10
2017-07-10T16:44:45.398Z,66.00
2017-07-10T16:47:13.030Z,65.50
2017-07-10T16:49:40.586Z,64.60
2017-07-10T16:52:08.158Z,64.30
2017-07-10T16:54:35.751Z,65.40
2017-07-10T16:57:03.324Z,66.60
2017-07-10T16:59:30.903Z,66.10
2017-07-10T17:01:58.463Z,65.50
2017-07-10T17:04:26.121Z,65.50
2017-07-10T17:06:53.708Z,65.80
2017-07-10T17:09:22.042Z,65.80
2017-07-10T17:11:49.636Z,65.50
2017-07-10T17:14:17.983Z,66.20
2017-07-10T17:16:45.535Z,65.80
2017-07-10T17:19:13.117Z,64.30
2017-07-10T17:21:40.699Z,63.50
2017-07-10T17:24:08.315Z,62.00
2017-07-10T17:26:35.922Z,62.30
2017-07-10T17:29:03.488Z,61.50
2017-07-10T17:31:31.067Z,61.70
2017-07-10T17:33:59.418Z,61.40
2017-07-10T17:36:27.005Z,61.20
2017-07-10T17:38:55.364Z,61.80
2017-07-10T17:41:22.944Z,61.70
2017-07-10T17:43:51.304Z,62.00
2017-07-10T17:46:18.932Z,62.00
2017-07-10T17:48:46.495Z,63.70
2017-07-10T17:51:14.111Z,62.10
2017-07-10T17:53:41.700Z,63.10
2017-07-10T17:56:09.283Z,62.70
2017-07-10T17:58:36.877Z,62.10
2017-07-10T18:01:04.488Z,63.30
2017-07-10T18:03:32.179Z,63.00
2017-07-10T18:05:59.765Z,63.00
2017-07-10T18:08:27.539Z,63.80
2017-07-10T18:10:55.097Z,63.50
2017-07-10T18:13:22.677Z,63.80
2017-07-10T18:15:50.271Z,63.80
2017-07-10T18:18:17.836Z,64.40
2017-07-10T18:20:45.457Z,64.70
2017-07-10T18:23:13.028Z,63.70
2017-07-10T18:25:42.600Z,63.30
2017-07-10T18:28:10.163Z,63.80
2017-07-10T18:30:37.743Z,63.90
2017-07-10T18:33:05.328Z,64.70
2017-07-10T18:35:33.730Z,65.80
2017-07-10T18:38:02.105Z,66.20
2017-07-10T18:40:30.485Z,66.50
2017-07-10T18:42:58.860Z,66.20
2017-07-10T18:45:26.488Z,66.20
2017-07-10T18:47:54.064Z,67.20
2017-07-10T18:50:21.645Z,67.70
2017-07-10T18:52:49.995Z,69.10
2017-07-10T18:55:17.618Z,68.40
2017-07-10T18:57:45.253Z,68.30
2017-07-10T19:00:13.663Z,69.50
2017-07-10T19:02:41.292Z,68.80
2017-07-10T19:05:08.884Z,68.40
2017-07-10T19:07:36.655Z,68.80
2017-07-10T19:10:04.229Z,68.10
2017-07-10T19:12:31.813Z,68.90
2017-07-10T19:14:59.563Z,68.20
2017-07-10T19:17:27.224Z,69.40
2017-07-10T19:19:54.812Z,69.10
2017-07-10T19:22:22.415Z,69.20
2017-07-10T19:24:50.857Z,69.30
2017-07-10T19:27:19.149Z,69.50
2017-07-10T19:29:46.735Z,69.40
2017-07-10T19:32:15.086Z,69.90
2017-07-10T19:34:42.690Z,69.90
2017-07-10T19:37:11.089Z,71.80
2017-07-10T19:39:38.683Z,71.90
2017-07-10T19:42:06.310Z,71.30
2017-07-10T19:44:33.942Z,72.00
2017-07-10T19:47:02.274Z,71.30
2017-07-10T19:49:30.025Z,71.20
2017-07-10T19:51:57.607Z,70.70
2017-07-10T19:54:25.192Z,71.90
2017-07-10T19:56:52.775Z,71.60
2017-07-10T19:59:20.478Z,71.80
2017-07-10T20:01:48.106Z,73.20
2017-07-10T20:04:15.690Z,72.30
2017-07-10T20:06:43.263Z,72.50
2017-07-10T20:09:10.942Z,74.60
2017-07-10T20:11:38.507Z,74.70
2017-07-10T20:14:06.094Z,75.60
2017-07-10T20:16:33.670Z,74.70
2017-07-10T20:19:01.259Z,75.60
2017-07-10T20:21:29.609Z,76.70
2017-07-10T20:23:59.348Z,76.50
2017-07-10T20:26:26.954Z,76.90
2017-07-10T20:28:54.557Z,77.10
2017-07-10T20:31:22.396Z,78.00
2017-07-10T20:33:53.660Z,78.70
2017-07-10T20:36:22.771Z,78.50
2017-07-10T20:38:50.478Z,78.80
2017-07-10T20:41:18.137Z,77.80
2017-07-10T20:43:46.457Z,77.90
2017-07-10T20:46:14.126Z,77.20
2017-07-10T20:48:42.215Z,78.20
2017-07-10T20:51:10.591Z,77.70
2017-07-10T20:53:38.229Z,77.60
2017-07-10T20:56:05.820Z,78.00
2017-07-10T20:58:33.384Z,78.80
2017-07-10T21:01:01.200Z,78.90
2017-07-10T21:03:28.922Z,78.90
2017-07-10T21:05:56.525Z,78.80
2017-07-10T21:08:24.095Z,79.10
2017-07-10T21:10:51.658Z,79.80
2017-07-10T21:13:19.263Z,78.90
2017-07-10T21:15:46.835Z,79.10
2017-07-10T21:18:16.771Z,79.50
2017-07-10T21:20:44.362Z,78.70
2017-07-10T21:23:11.945Z,79.50
2017-07-10T21:25:39.508Z,80.10
2017-07-10T21:28:07.082Z,81.90
2017-07-10T21:30:35.447Z,80.40
2017-07-10T21:33:03.026Z,80.40
2017-07-10T21:35:31.331Z,80.80
2017-07-10T21:37:58.907Z,80.80
2017-07-10T21:40:26.493Z,82.50
2017-07-10T21:42:54.040Z,83.40
2017-07-10T21:45:22.033Z,82.20
2017-07-10T21:47:49.594Z,82.90
2017-07-10T21:50:17.166Z,82.10
2017-07-10T21:52:44.791Z,83.40
2017-07-10T21:55:12.467Z,82.90
2017-07-10T21:57:40.058Z,82.50
2017-07-10T22:00:07.617Z,82.20
2017-07-10T22:02:35.255Z,81.90
2017-07-10T22:05:02.814Z,82.50
2017-07-10T22:07:30.473Z,83.60
2017-07-10T22:09:58.843Z,82.60
2017-07-10T22:12:26.415Z,82.60
2017-07-10T22:14:54.002Z,83.00
2017-07-10T22:17:21.589Z,81.90
2017-07-10T22:19:49.922Z,82.00
2017-07-10T22:22:17.464Z,82.00
2017-07-10T22:24:45.047Z,81.80
2017-07-10T22:27:12.612Z,81.60
2017-07-10T22:29:40.160Z,81.90
2017-07-10T22:32:07.770Z,81.40
2017-07-10T22:34:35.339Z,82.70
2017-07-10T22:37:02.915Z,83.60
2017-07-10T22:39:30.548Z,85.30
2017-07-10T22:41:58.886Z,87.50
2017-07-10T22:44:26.454Z,87.50
2017-07-10T22:46:54.190Z,87.00
2017-07-10T22:49:22.015Z,85.40
2017-07-10T22:51:49.809Z,87.10
2017-07-10T22:54:17.550Z,87.00
2017-07-10T22:56:46.024Z,85.20
2017-07-10T22:59:13.851Z,85.30
2017-07-10T23:01:41.488Z,85.90
2017-07-10T23:04:09.277Z,85.70
2017-07-10T23:06:36.948Z,83.90
2017-07-10T23:09:04.657Z,83.80
2017-07-10T23:11:32.340Z,83.20
2017-07-10T23:14:00.862Z,83.60
2017-07-10T23:16:28.633Z,83.60
2017-07-10T23:18:57.482Z,83.40
2017-07-10T23:21:26.069Z,83.90
2017-07-10T23:23:53.927Z,83.90
2017-07-10T23:26:21.715Z,84.10
2017-07-10T23:28:49.567Z,84.50
2017-07-10T23:31:18.003Z,84.40
2017-07-10T23:33:45.592Z,84.40
2017-07-10T23:36:13.208Z,85.00
2017-07-10T23:38:40.795Z,84.50
2017-07-10T23:41:08.367Z,86.00
2017-07-10T23:43:35.959Z,86.30
2017-07-10T23:46:04.275Z,87.70
2017-07-10T23:48:31.956Z,87.70
2017-07-10T23:50:59.520Z,87.50
2017-07-10T23:53:27.095Z,87.60
2017-07-10T23:55:54.643Z,88.50
2017-07-10T23:58:22.211Z,89.00
